sensor_id;sensor_type;location;lat;lon;timestamp;P1;durP1;ratioP1;P2;durP2;ratioP2
75486;SDS011;65009;44.762;21.516;2022-12-11T00:01:16;15.73;;;14.13;;
75486;SDS011;65009;44.762;21.516;2022-12-11T00:03:42;16.80;;;10.23;;
75486;SDS011;65009;44.762;21.516;2022-12-11T00:06:09;9.33;;;7.67;;
75486;SDS011;65009;44.762;21.516;2022-12-11T00:08:36;6.37;;;5.50;;
75486;SDS011;65009;44.762;21.516;2022-12-11T00:11:02;5.47;;;4.60;;
75486;SDS011;65009;44.762;21.516;2022-12-11T00:13:28;10.20;;;7.50;;
75486;SDS011;65009;44.762;21.516;2022-12-11T00:15:57;7.77;;;6.97;;
75486;SDS011;65009;44.762;21.516;2022-12-11T00:18:23;17.50;;;10.50;;
75486;SDS011;65009;44.762;21.516;2022-12-11T00:20:49;8.10;;;5.20;;
75486;SDS011;65009;44.762;21.516;2022-12-11T00:23:15;6.28;;;4.40;;
75486;SDS011;65009;44.762;21.516;2022-12-11T00:25:42;7.32;;;4.53;;
75486;SDS011;65009;44.762;21.516;2022-12-11T00:28:09;9.07;;;4.80;;
75486;SDS011;65009;44.762;21.516;2022-12-11T00:30:38;6.73;;;3.40;;
75486;SDS011;65009;44.762;21.516;2022-12-11T00:33:05;4.17;;;3.43;;
75486;SDS011;65009;44.762;21.516;2022-12-11T00:35:31;5.10;;;3.80;;
75486;SDS011;65009;44.762;21.516;2022-12-11T00:37:57;7.23;;;4.10;;
75486;SDS011;65009;44.762;21.516;2022-12-11T00:40:23;7.47;;;5.10;;
75486;SDS011;65009;44.762;21.516;2022-12-11T00:42:49;15.87;;;11.87;;
75486;SDS011;65009;44.762;21.516;2022-12-11T00:45:15;9.90;;;8.90;;
75486;SDS011;65009;44.762;21.516;2022-12-11T00:47:42;15.30;;;13.13;;
75486;SDS011;65009;44.762;21.516;2022-12-11T00:50:08;6.67;;;4.50;;
75486;SDS011;65009;44.762;21.516;2022-12-11T00:52:34;6.63;;;4.67;;
75486;SDS011;65009;44.762;21.516;2022-12-11T00:55:00;8.70;;;5.17;;
75486;SDS011;65009;44.762;21.516;2022-12-11T00:57:26;8.57;;;4.77;;
75486;SDS011;65009;44.762;21.516;2022-12-11T00:59:52;10.33;;;5.73;;
75486;SDS011;65009;44.762;21.516;2022-12-11T01:02:18;10.87;;;7.87;;
75486;SDS011;65009;44.762;21.516;2022-12-11T01:04:44;21.00;;;12.00;;
75486;SDS011;65009;44.762;21.516;2022-12-11T01:07:10;10.10;;;6.87;;
75486;SDS011;65009;44.762;21.516;2022-12-11T01:09:37;14.70;;;8.27;;
75486;SDS011;65009;44.762;21.516;2022-12-11T01:12:21;15.63;;;8.73;;
75486;SDS011;65009;44.762;21.516;2022-12-11T01:14:47;15.70;;;8.27;;
75486;SDS011;65009;44.762;21.516;2022-12-11T01:17:13;20.77;;;8.77;;
75486;SDS011;65009;44.762;21.516;2022-12-11T01:19:40;5.57;;;3.23;;
75486;SDS011;65009;44.762;21.516;2022-12-11T01:22:06;9.90;;;5.83;;
75486;SDS011;65009;44.762;21.516;2022-12-11T01:24:32;6.10;;;3.30;;
75486;SDS011;65009;44.762;21.516;2022-12-11T01:26:58;11.43;;;7.07;;
75486;SDS011;65009;44.762;21.516;2022-12-11T01:29:24;4.87;;;3.10;;
75486;SDS011;65009;44.762;21.516;2022-12-11T01:31:50;3.90;;;2.83;;
75486;SDS011;65009;44.762;21.516;2022-12-11T01:34:16;3.87;;;2.93;;
75486;SDS011;65009;44.762;21.516;2022-12-11T01:36:43;4.03;;;3.00;;
75486;SDS011;65009;44.762;21.516;2022-12-11T01:39:09;4.67;;;3.03;;
75486;SDS011;65009;44.762;21.516;2022-12-11T01:41:35;5.77;;;2.93;;
75486;SDS011;65009;44.762;21.516;2022-12-11T01:44:03;5.37;;;3.20;;
75486;SDS011;65009;44.762;21.516;2022-12-11T01:46:30;5.13;;;2.63;;
75486;SDS011;65009;44.762;21.516;2022-12-11T01:48:56;3.77;;;2.47;;
75486;SDS011;65009;44.762;21.516;2022-12-11T01:51:23;5.67;;;3.47;;
75486;SDS011;65009;44.762;21.516;2022-12-11T01:53:53;2.93;;;1.90;;
75486;SDS011;65009;44.762;21.516;2022-12-11T01:56:20;3.25;;;2.35;;
75486;SDS011;65009;44.762;21.516;2022-12-11T01:58:48;4.77;;;2.23;;
75486;SDS011;65009;44.762;21.516;2022-12-11T02:01:23;2.07;;;1.27;;
75486;SDS011;65009;44.762;21.516;2022-12-11T02:03:52;5.43;;;2.20;;
75486;SDS011;65009;44.762;21.516;2022-12-11T02:06:36;3.80;;;2.30;;
75486;SDS011;65009;44.762;21.516;2022-12-11T02:09:03;3.57;;;2.07;;
75486;SDS011;65009;44.762;21.516;2022-12-11T02:11:54;2.73;;;1.67;;
75486;SDS011;65009;44.762;21.516;2022-12-11T02:14:27;5.33;;;3.80;;
75486;SDS011;65009;44.762;21.516;2022-12-11T02:16:57;3.40;;;2.27;;
75486;SDS011;65009;44.762;21.516;2022-12-11T02:21:52;1.20;;;0.83;;
75486;SDS011;65009;44.762;21.516;2022-12-11T02:24:26;3.00;;;1.70;;
75486;SDS011;65009;44.762;21.516;2022-12-11T02:29:29;1.67;;;1.10;;
75486;SDS011;65009;44.762;21.516;2022-12-11T02:32:03;4.57;;;1.58;;
75486;SDS011;65009;44.762;21.516;2022-12-11T02:34:36;2.07;;;0.90;;
75486;SDS011;65009;44.762;21.516;2022-12-11T02:37:06;7.27;;;3.90;;
75486;SDS011;65009;44.762;21.516;2022-12-11T02:39:34;5.23;;;2.70;;
75486;SDS011;65009;44.762;21.516;2022-12-11T02:42:03;14.43;;;6.73;;
75486;SDS011;65009;44.762;21.516;2022-12-11T02:44:29;28.17;;;13.50;;
75486;SDS011;65009;44.762;21.516;2022-12-11T02:46:57;3.37;;;1.50;;
75486;SDS011;65009;44.762;21.516;2022-12-11T02:49:24;8.97;;;4.30;;
75486;SDS011;65009;44.762;21.516;2022-12-11T02:51:51;8.70;;;3.87;;
75486;SDS011;65009;44.762;21.516;2022-12-11T02:54:22;2.33;;;0.93;;
75486;SDS011;65009;44.762;21.516;2022-12-11T02:56:51;3.53;;;1.50;;
75486;SDS011;65009;44.762;21.516;2022-12-11T02:59:20;2.43;;;0.80;;
75486;SDS011;65009;44.762;21.516;2022-12-11T03:01:48;6.37;;;3.03;;
75486;SDS011;65009;44.762;21.516;2022-12-11T03:04:15;5.67;;;2.80;;
75486;SDS011;65009;44.762;21.516;2022-12-11T03:06:42;2.80;;;1.30;;
75486;SDS011;65009;44.762;21.516;2022-12-11T03:09:10;5.40;;;2.20;;
75486;SDS011;65009;44.762;21.516;2022-12-11T03:11:37;13.67;;;6.90;;
75486;SDS011;65009;44.762;21.516;2022-12-11T03:14:03;11.57;;;6.07;;
75486;SDS011;65009;44.762;21.516;2022-12-11T03:16:36;2.23;;;1.70;;
75486;SDS011;65009;44.762;21.516;2022-12-11T03:21:57;5.07;;;3.20;;
75486;SDS011;65009;44.762;21.516;2022-12-11T03:24:27;4.73;;;2.70;;
75486;SDS011;65009;44.762;21.516;2022-12-11T03:26:56;4.47;;;2.50;;
75486;SDS011;65009;44.762;21.516;2022-12-11T03:29:34;4.00;;;2.70;;
75486;SDS011;65009;44.762;21.516;2022-12-11T03:32:06;2.30;;;1.63;;
75486;SDS011;65009;44.762;21.516;2022-12-11T03:34:51;0.40;;;0.30;;
75486;SDS011;65009;44.762;21.516;2022-12-11T03:37:18;14.17;;;7.40;;
75486;SDS011;65009;44.762;21.516;2022-12-11T03:39:50;9.40;;;4.20;;
75486;SDS011;65009;44.762;21.516;2022-12-11T03:42:17;4.72;;;2.47;;
75486;SDS011;65009;44.762;21.516;2022-12-11T03:44:45;2.93;;;2.20;;
75486;SDS011;65009;44.762;21.516;2022-12-11T03:47:13;3.80;;;2.53;;
75486;SDS011;65009;44.762;21.516;2022-12-11T03:49:41;7.27;;;4.50;;
75486;SDS011;65009;44.762;21.516;2022-12-11T03:52:09;5.07;;;2.93;;
75486;SDS011;65009;44.762;21.516;2022-12-11T03:54:36;5.93;;;3.93;;
75486;SDS011;65009;44.762;21.516;2022-12-11T03:57:03;1.97;;;1.37;;
75486;SDS011;65009;44.762;21.516;2022-12-11T03:59:30;5.57;;;2.50;;
75486;SDS011;65009;44.762;21.516;2022-12-11T04:01:56;6.20;;;3.43;;
75486;SDS011;65009;44.762;21.516;2022-12-11T04:04:22;1.10;;;0.70;;
75486;SDS011;65009;44.762;21.516;2022-12-11T04:06:48;3.70;;;2.30;;
75486;SDS011;65009;44.762;21.516;2022-12-11T04:09:14;3.53;;;1.20;;
75486;SDS011;65009;44.762;21.516;2022-12-11T04:11:40;4.13;;;1.10;;
75486;SDS011;65009;44.762;21.516;2022-12-11T04:14:08;4.73;;;2.33;;
75486;SDS011;65009;44.762;21.516;2022-12-11T04:16:52;2.93;;;0.97;;
75486;SDS011;65009;44.762;21.516;2022-12-11T04:19:19;2.77;;;1.70;;
75486;SDS011;65009;44.762;21.516;2022-12-11T04:22:04;2.87;;;1.60;;
75486;SDS011;65009;44.762;21.516;2022-12-11T04:24:49;3.83;;;1.83;;
75486;SDS011;65009;44.762;21.516;2022-12-11T04:27:16;1.93;;;1.60;;
75486;SDS011;65009;44.762;21.516;2022-12-11T04:30:03;4.53;;;2.97;;
75486;SDS011;65009;44.762;21.516;2022-12-11T04:32:29;6.23;;;3.90;;
75486;SDS011;65009;44.762;21.516;2022-12-11T04:34:55;3.87;;;2.50;;
75486;SDS011;65009;44.762;21.516;2022-12-11T04:37:22;3.83;;;2.40;;
75486;SDS011;65009;44.762;21.516;2022-12-11T04:39:48;8.60;;;4.20;;
75486;SDS011;65009;44.762;21.516;2022-12-11T04:42:14;4.10;;;2.23;;
75486;SDS011;65009;44.762;21.516;2022-12-11T04:44:40;15.03;;;7.47;;
75486;SDS011;65009;44.762;21.516;2022-12-11T04:47:06;5.80;;;3.63;;
75486;SDS011;65009;44.762;21.516;2022-12-11T04:49:33;13.70;;;9.00;;
75486;SDS011;65009;44.762;21.516;2022-12-11T04:51:59;10.00;;;5.07;;
75486;SDS011;65009;44.762;21.516;2022-12-11T04:54:25;23.23;;;11.70;;
75486;SDS011;65009;44.762;21.516;2022-12-11T04:56:51;9.30;;;5.00;;
75486;SDS011;65009;44.762;21.516;2022-12-11T04:59:17;14.53;;;7.43;;
75486;SDS011;65009;44.762;21.516;2022-12-11T05:01:43;12.23;;;7.57;;
75486;SDS011;65009;44.762;21.516;2022-12-11T05:04:09;14.73;;;8.37;;
75486;SDS011;65009;44.762;21.516;2022-12-11T05:06:35;7.53;;;4.83;;
75486;SDS011;65009;44.762;21.516;2022-12-11T05:09:02;14.07;;;8.40;;
75486;SDS011;65009;44.762;21.516;2022-12-11T05:11:28;6.37;;;3.70;;
75486;SDS011;65009;44.762;21.516;2022-12-11T05:13:54;7.23;;;4.53;;
75486;SDS011;65009;44.762;21.516;2022-12-11T05:16:20;9.23;;;6.47;;
75486;SDS011;65009;44.762;21.516;2022-12-11T05:18:47;9.30;;;6.47;;
75486;SDS011;65009;44.762;21.516;2022-12-11T05:21:13;10.53;;;6.67;;
75486;SDS011;65009;44.762;21.516;2022-12-11T05:23:40;10.07;;;6.13;;
75486;SDS011;65009;44.762;21.516;2022-12-11T05:26:07;15.67;;;8.00;;
75486;SDS011;65009;44.762;21.516;2022-12-11T05:28:35;11.93;;;6.80;;
75486;SDS011;65009;44.762;21.516;2022-12-11T05:31:04;15.00;;;7.20;;
75486;SDS011;65009;44.762;21.516;2022-12-11T05:33:31;10.73;;;5.47;;
75486;SDS011;65009;44.762;21.516;2022-12-11T05:35:58;5.73;;;3.83;;
75486;SDS011;65009;44.762;21.516;2022-12-11T05:38:24;3.50;;;3.00;;
75486;SDS011;65009;44.762;21.516;2022-12-11T05:41:09;3.53;;;2.50;;
75486;SDS011;65009;44.762;21.516;2022-12-11T05:43:37;4.43;;;2.57;;
75486;SDS011;65009;44.762;21.516;2022-12-11T05:46:06;4.03;;;2.93;;
75486;SDS011;65009;44.762;21.516;2022-12-11T05:48:33;5.63;;;3.63;;
75486;SDS011;65009;44.762;21.516;2022-12-11T05:51:00;3.83;;;2.93;;
75486;SDS011;65009;44.762;21.516;2022-12-11T05:53:26;4.47;;;3.73;;
75486;SDS011;65009;44.762;21.516;2022-12-11T05:55:52;4.43;;;3.10;;
75486;SDS011;65009;44.762;21.516;2022-12-11T05:58:19;4.20;;;3.20;;
75486;SDS011;65009;44.762;21.516;2022-12-11T06:00:46;4.93;;;4.00;;
75486;SDS011;65009;44.762;21.516;2022-12-11T06:03:12;6.97;;;3.97;;
75486;SDS011;65009;44.762;21.516;2022-12-11T06:05:39;6.17;;;4.00;;
75486;SDS011;65009;44.762;21.516;2022-12-11T06:08:05;8.47;;;5.80;;
75486;SDS011;65009;44.762;21.516;2022-12-11T06:10:31;11.23;;;6.37;;
75486;SDS011;65009;44.762;21.516;2022-12-11T06:12:57;5.87;;;5.07;;
75486;SDS011;65009;44.762;21.516;2022-12-11T06:15:23;5.27;;;4.50;;
75486;SDS011;65009;44.762;21.516;2022-12-11T06:17:49;7.07;;;5.67;;
75486;SDS011;65009;44.762;21.516;2022-12-11T06:20:16;7.67;;;5.80;;
75486;SDS011;65009;44.762;21.516;2022-12-11T06:22:42;11.70;;;7.67;;
75486;SDS011;65009;44.762;21.516;2022-12-11T06:25:08;9.10;;;5.93;;
75486;SDS011;65009;44.762;21.516;2022-12-11T06:27:37;8.27;;;6.20;;
75486;SDS011;65009;44.762;21.516;2022-12-11T06:30:03;7.47;;;5.50;;
75486;SDS011;65009;44.762;21.516;2022-12-11T06:32:29;7.87;;;5.80;;
75486;SDS011;65009;44.762;21.516;2022-12-11T06:34:56;10.93;;;7.20;;
75486;SDS011;65009;44.762;21.516;2022-12-11T06:37:22;22.20;;;10.27;;
75486;SDS011;65009;44.762;21.516;2022-12-11T06:39:48;8.23;;;6.10;;
75486;SDS011;65009;44.762;21.516;2022-12-11T06:42:14;17.03;;;11.23;;
75486;SDS011;65009;44.762;21.516;2022-12-11T06:44:41;105.93;;;47.33;;
75486;SDS011;65009;44.762;21.516;2022-12-11T06:47:07;191.77;;;87.03;;
75486;SDS011;65009;44.762;21.516;2022-12-11T06:49:33;108.67;;;48.07;;
75486;SDS011;65009;44.762;21.516;2022-12-11T06:52:00;128.70;;;60.90;;
75486;SDS011;65009;44.762;21.516;2022-12-11T06:54:26;84.23;;;38.13;;
75486;SDS011;65009;44.762;21.516;2022-12-11T06:56:52;74.63;;;35.63;;
75486;SDS011;65009;44.762;21.516;2022-12-11T06:59:18;61.03;;;32.57;;
75486;SDS011;65009;44.762;21.516;2022-12-11T07:01:45;70.23;;;33.33;;
75486;SDS011;65009;44.762;21.516;2022-12-11T07:04:11;48.17;;;25.10;;
75486;SDS011;65009;44.762;21.516;2022-12-11T07:06:37;66.23;;;32.70;;
75486;SDS011;65009;44.762;21.516;2022-12-11T07:09:04;26.53;;;14.37;;
75486;SDS011;65009;44.762;21.516;2022-12-11T07:11:30;31.07;;;16.77;;
75486;SDS011;65009;44.762;21.516;2022-12-11T07:13:57;38.20;;;21.23;;
75486;SDS011;65009;44.762;21.516;2022-12-11T07:16:24;28.63;;;17.67;;
75486;SDS011;65009;44.762;21.516;2022-12-11T07:18:50;30.73;;;19.10;;
75486;SDS011;65009;44.762;21.516;2022-12-11T07:21:18;50.03;;;28.53;;
75486;SDS011;65009;44.762;21.516;2022-12-11T07:23:44;26.53;;;15.50;;
75486;SDS011;65009;44.762;21.516;2022-12-11T07:26:12;23.33;;;15.23;;
75486;SDS011;65009;44.762;21.516;2022-12-11T07:28:38;42.90;;;25.23;;
75486;SDS011;65009;44.762;21.516;2022-12-11T07:31:10;32.57;;;19.00;;
75486;SDS011;65009;44.762;21.516;2022-12-11T07:33:37;25.15;;;14.68;;
75486;SDS011;65009;44.762;21.516;2022-12-11T07:36:03;16.10;;;9.97;;
75486;SDS011;65009;44.762;21.516;2022-12-11T07:38:30;26.93;;;15.27;;
75486;SDS011;65009;44.762;21.516;2022-12-11T07:41:00;29.57;;;15.93;;
75486;SDS011;65009;44.762;21.516;2022-12-11T07:43:26;21.03;;;12.17;;
75486;SDS011;65009;44.762;21.516;2022-12-11T07:45:52;24.27;;;14.73;;
75486;SDS011;65009;44.762;21.516;2022-12-11T07:48:19;30.10;;;17.30;;
75486;SDS011;65009;44.762;21.516;2022-12-11T07:50:45;24.23;;;13.57;;
75486;SDS011;65009;44.762;21.516;2022-12-11T07:53:11;21.33;;;12.90;;
75486;SDS011;65009;44.762;21.516;2022-12-11T07:55:37;26.87;;;16.67;;
75486;SDS011;65009;44.762;21.516;2022-12-11T07:58:03;43.50;;;21.27;;
75486;SDS011;65009;44.762;21.516;2022-12-11T08:00:29;55.90;;;26.73;;
75486;SDS011;65009;44.762;21.516;2022-12-11T08:02:55;68.03;;;31.87;;
75486;SDS011;65009;44.762;21.516;2022-12-11T08:05:22;40.43;;;21.20;;
75486;SDS011;65009;44.762;21.516;2022-12-11T08:07:48;39.70;;;18.63;;
75486;SDS011;65009;44.762;21.516;2022-12-11T08:10:15;21.57;;;12.27;;
75486;SDS011;65009;44.762;21.516;2022-12-11T08:12:41;24.60;;;14.53;;
75486;SDS011;65009;44.762;21.516;2022-12-11T08:15:07;33.93;;;18.60;;
75486;SDS011;65009;44.762;21.516;2022-12-11T08:17:34;23.57;;;14.70;;
75486;SDS011;65009;44.762;21.516;2022-12-11T08:20:00;34.20;;;19.83;;
75486;SDS011;65009;44.762;21.516;2022-12-11T08:22:26;29.73;;;18.70;;
75486;SDS011;65009;44.762;21.516;2022-12-11T08:24:53;27.40;;;17.37;;
75486;SDS011;65009;44.762;21.516;2022-12-11T08:27:19;40.90;;;24.97;;
75486;SDS011;65009;44.762;21.516;2022-12-11T08:29:45;36.47;;;22.53;;
75486;SDS011;65009;44.762;21.516;2022-12-11T08:32:12;25.93;;;15.57;;
75486;SDS011;65009;44.762;21.516;2022-12-11T08:34:40;43.40;;;23.97;;
75486;SDS011;65009;44.762;21.516;2022-12-11T08:37:06;28.97;;;16.70;;
75486;SDS011;65009;44.762;21.516;2022-12-11T08:39:32;42.93;;;24.37;;
75486;SDS011;65009;44.762;21.516;2022-12-11T08:41:59;41.53;;;23.80;;
75486;SDS011;65009;44.762;21.516;2022-12-11T08:44:25;26.00;;;15.60;;
75486;SDS011;65009;44.762;21.516;2022-12-11T08:46:52;26.87;;;17.53;;
75486;SDS011;65009;44.762;21.516;2022-12-11T08:49:18;25.23;;;14.83;;
75486;SDS011;65009;44.762;21.516;2022-12-11T08:51:44;32.13;;;18.30;;
75486;SDS011;65009;44.762;21.516;2022-12-11T08:54:11;30.53;;;17.67;;
75486;SDS011;65009;44.762;21.516;2022-12-11T08:56:37;28.13;;;17.20;;
75486;SDS011;65009;44.762;21.516;2022-12-11T08:59:03;32.37;;;19.73;;
75486;SDS011;65009;44.762;21.516;2022-12-11T09:01:30;30.93;;;19.13;;
75486;SDS011;65009;44.762;21.516;2022-12-11T09:03:56;28.40;;;19.10;;
75486;SDS011;65009;44.762;21.516;2022-12-11T09:06:24;26.67;;;16.97;;
75486;SDS011;65009;44.762;21.516;2022-12-11T09:08:51;27.63;;;17.50;;
75486;SDS011;65009;44.762;21.516;2022-12-11T09:11:19;18.57;;;13.23;;
75486;SDS011;65009;44.762;21.516;2022-12-11T09:13:45;24.37;;;16.63;;
75486;SDS011;65009;44.762;21.516;2022-12-11T09:16:13;29.57;;;18.23;;
75486;SDS011;65009;44.762;21.516;2022-12-11T09:18:39;30.27;;;20.20;;
75486;SDS011;65009;44.762;21.516;2022-12-11T09:21:07;34.17;;;21.57;;
75486;SDS011;65009;44.762;21.516;2022-12-11T09:23:34;29.23;;;18.70;;
75486;SDS011;65009;44.762;21.516;2022-12-11T09:26:04;35.33;;;22.40;;
75486;SDS011;65009;44.762;21.516;2022-12-11T09:28:30;31.27;;;19.23;;
75486;SDS011;65009;44.762;21.516;2022-12-11T09:30:56;42.90;;;24.83;;
75486;SDS011;65009;44.762;21.516;2022-12-11T09:33:22;56.17;;;29.20;;
75486;SDS011;65009;44.762;21.516;2022-12-11T09:36:01;33.53;;;20.97;;
75486;SDS011;65009;44.762;21.516;2022-12-11T09:38:28;40.10;;;25.33;;
75486;SDS011;65009;44.762;21.516;2022-12-11T09:40:54;33.57;;;21.47;;
75486;SDS011;65009;44.762;21.516;2022-12-11T09:43:31;43.87;;;26.37;;
75486;SDS011;65009;44.762;21.516;2022-12-11T09:46:01;31.37;;;19.93;;
75486;SDS011;65009;44.762;21.516;2022-12-11T09:48:28;60.40;;;32.00;;
75486;SDS011;65009;44.762;21.516;2022-12-11T09:50:56;38.97;;;22.33;;
75486;SDS011;65009;44.762;21.516;2022-12-11T09:53:25;53.30;;;28.93;;
75486;SDS011;65009;44.762;21.516;2022-12-11T09:58:30;39.27;;;22.10;;
75486;SDS011;65009;44.762;21.516;2022-12-11T10:01:00;64.97;;;30.73;;
75486;SDS011;65009;44.762;21.516;2022-12-11T10:04:12;52.65;;;27.00;;
75486;SDS011;65009;44.762;21.516;2022-12-11T10:14:01;37.40;;;22.60;;
75486;SDS011;65009;44.762;21.516;2022-12-11T10:19:26;36.83;;;20.33;;
75486;SDS011;65009;44.762;21.516;2022-12-11T10:21:53;51.27;;;26.80;;
75486;SDS011;65009;44.762;21.516;2022-12-11T10:24:39;47.07;;;23.53;;
75486;SDS011;65009;44.762;21.516;2022-12-11T10:27:20;67.03;;;35.10;;
75486;SDS011;65009;44.762;21.516;2022-12-11T10:29:48;28.93;;;17.63;;
75486;SDS011;65009;44.762;21.516;2022-12-11T10:32:24;33.93;;;21.33;;
75486;SDS011;65009;44.762;21.516;2022-12-11T10:34:56;35.30;;;20.20;;
75486;SDS011;65009;44.762;21.516;2022-12-11T10:37:24;48.40;;;25.67;;
75486;SDS011;65009;44.762;21.516;2022-12-11T10:39:50;47.63;;;26.73;;
75486;SDS011;65009;44.762;21.516;2022-12-11T10:42:19;39.70;;;23.30;;
75486;SDS011;65009;44.762;21.516;2022-12-11T10:45:14;38.43;;;22.23;;
75486;SDS011;65009;44.762;21.516;2022-12-11T10:47:33;50.57;;;28.60;;
75486;SDS011;65009;44.762;21.516;2022-12-11T10:50:00;74.47;;;38.47;;
75486;SDS011;65009;44.762;21.516;2022-12-11T10:54:57;73.67;;;39.33;;
75486;SDS011;65009;44.762;21.516;2022-12-11T10:57:25;64.70;;;32.65;;
75486;SDS011;65009;44.762;21.516;2022-12-11T10:59:52;73.40;;;35.83;;
75486;SDS011;65009;44.762;21.516;2022-12-11T11:04:59;66.63;;;33.77;;
75486;SDS011;65009;44.762;21.516;2022-12-11T11:07:26;75.20;;;36.20;;
75486;SDS011;65009;44.762;21.516;2022-12-11T11:10:12;56.67;;;31.83;;
75486;SDS011;65009;44.762;21.516;2022-12-11T11:12:46;72.47;;;34.80;;
75486;SDS011;65009;44.762;21.516;2022-12-11T11:15:13;60.00;;;29.63;;
75486;SDS011;65009;44.762;21.516;2022-12-11T11:17:41;74.47;;;36.17;;
75486;SDS011;65009;44.762;21.516;2022-12-11T11:20:12;101.73;;;44.40;;
75486;SDS011;65009;44.762;21.516;2022-12-11T11:22:48;55.30;;;27.30;;
75486;SDS011;65009;44.762;21.516;2022-12-11T11:25:16;65.93;;;30.40;;
75486;SDS011;65009;44.762;21.516;2022-12-11T11:28:05;59.27;;;28.67;;
75486;SDS011;65009;44.762;21.516;2022-12-11T11:32:57;102.33;;;43.83;;
75486;SDS011;65009;44.762;21.516;2022-12-11T11:35:28;101.00;;;41.07;;
75486;SDS011;65009;44.762;21.516;2022-12-11T11:40:41;82.40;;;34.77;;
75486;SDS011;65009;44.762;21.516;2022-12-11T11:46:13;95.00;;;42.13;;
75486;SDS011;65009;44.762;21.516;2022-12-11T11:51:13;81.83;;;39.70;;
75486;SDS011;65009;44.762;21.516;2022-12-11T11:53:40;115.60;;;54.38;;
75486;SDS011;65009;44.762;21.516;2022-12-11T11:56:16;75.77;;;38.10;;
75486;SDS011;65009;44.762;21.516;2022-12-11T11:58:48;72.87;;;34.97;;
75486;SDS011;65009;44.762;21.516;2022-12-11T12:01:18;113.07;;;52.87;;
75486;SDS011;65009;44.762;21.516;2022-12-11T12:03:45;108.13;;;51.07;;
75486;SDS011;65009;44.762;21.516;2022-12-11T12:11:17;80.43;;;42.30;;
75486;SDS011;65009;44.762;21.516;2022-12-11T12:16:39;77.53;;;38.58;;
75486;SDS011;65009;44.762;21.516;2022-12-11T12:21:36;123.57;;;59.70;;
75486;SDS011;65009;44.762;21.516;2022-12-11T12:26:51;76.10;;;39.30;;
75486;SDS011;65009;44.762;21.516;2022-12-11T12:34:39;88.17;;;43.70;;
75486;SDS011;65009;44.762;21.516;2022-12-11T12:39:51;68.63;;;36.33;;
75486;SDS011;65009;44.762;21.516;2022-12-11T12:47:15;36.73;;;22.20;;
75486;SDS011;65009;44.762;21.516;2022-12-11T12:49:45;37.47;;;24.60;;
75486;SDS011;65009;44.762;21.516;2022-12-11T12:52:19;54.80;;;32.73;;
75486;SDS011;65009;44.762;21.516;2022-12-11T12:54:46;45.30;;;26.47;;
75486;SDS011;65009;44.762;21.516;2022-12-11T12:57:33;43.60;;;26.30;;
75486;SDS011;65009;44.762;21.516;2022-12-11T13:00:00;52.47;;;30.50;;
75486;SDS011;65009;44.762;21.516;2022-12-11T13:02:26;49.50;;;28.57;;
75486;SDS011;65009;44.762;21.516;2022-12-11T13:04:57;53.97;;;29.43;;
75486;SDS011;65009;44.762;21.516;2022-12-11T13:07:28;56.17;;;31.20;;
75486;SDS011;65009;44.762;21.516;2022-12-11T13:12:39;59.50;;;31.77;;
75486;SDS011;65009;44.762;21.516;2022-12-11T13:15:48;64.17;;;35.50;;
75486;SDS011;65009;44.762;21.516;2022-12-11T13:17:56;75.77;;;41.10;;
75486;SDS011;65009;44.762;21.516;2022-12-11T13:20:23;65.67;;;38.60;;
75486;SDS011;65009;44.762;21.516;2022-12-11T13:22:54;67.27;;;36.93;;
75486;SDS011;65009;44.762;21.516;2022-12-11T13:27:49;67.77;;;35.50;;
75486;SDS011;65009;44.762;21.516;2022-12-11T13:30:20;69.27;;;36.60;;
75486;SDS011;65009;44.762;21.516;2022-12-11T13:35:16;64.73;;;34.43;;
75486;SDS011;65009;44.762;21.516;2022-12-11T13:37:43;56.50;;;32.10;;
75486;SDS011;65009;44.762;21.516;2022-12-11T13:42:52;58.67;;;34.30;;
75486;SDS011;65009;44.762;21.516;2022-12-11T13:45:24;55.27;;;33.73;;
75486;SDS011;65009;44.762;21.516;2022-12-11T13:47:53;61.87;;;34.73;;
75486;SDS011;65009;44.762;21.516;2022-12-11T13:50:21;59.73;;;34.00;;
75486;SDS011;65009;44.762;21.516;2022-12-11T13:52:52;70.03;;;38.37;;
75486;SDS011;65009;44.762;21.516;2022-12-11T13:55:26;77.90;;;43.60;;
75486;SDS011;65009;44.762;21.516;2022-12-11T13:57:54;52.57;;;30.40;;
75486;SDS011;65009;44.762;21.516;2022-12-11T14:00:21;66.97;;;37.90;;
75486;SDS011;65009;44.762;21.516;2022-12-11T14:02:48;78.13;;;43.00;;
75486;SDS011;65009;44.762;21.516;2022-12-11T14:05:15;90.10;;;47.33;;
75486;SDS011;65009;44.762;21.516;2022-12-11T14:08:16;79.90;;;43.33;;
75486;SDS011;65009;44.762;21.516;2022-12-11T14:10:34;57.70;;;32.93;;
75486;SDS011;65009;44.762;21.516;2022-12-11T14:13:02;40.10;;;23.87;;
75486;SDS011;65009;44.762;21.516;2022-12-11T14:15:29;50.77;;;28.37;;
75486;SDS011;65009;44.762;21.516;2022-12-11T14:17:56;48.43;;;28.23;;
75486;SDS011;65009;44.762;21.516;2022-12-11T14:20:23;54.63;;;28.47;;
75486;SDS011;65009;44.762;21.516;2022-12-11T14:22:51;47.70;;;28.40;;
75486;SDS011;65009;44.762;21.516;2022-12-11T14:25:28;55.50;;;30.70;;
75486;SDS011;65009;44.762;21.516;2022-12-11T14:27:55;59.23;;;32.83;;
75486;SDS011;65009;44.762;21.516;2022-12-11T14:30:26;62.03;;;35.70;;
75486;SDS011;65009;44.762;21.516;2022-12-11T14:32:54;56.05;;;32.63;;
75486;SDS011;65009;44.762;21.516;2022-12-11T14:35:34;65.53;;;38.73;;
75486;SDS011;65009;44.762;21.516;2022-12-11T14:38:02;59.33;;;33.93;;
75486;SDS011;65009;44.762;21.516;2022-12-11T14:40:33;43.47;;;25.70;;
75486;SDS011;65009;44.762;21.516;2022-12-11T14:43:01;44.93;;;24.20;;
75486;SDS011;65009;44.762;21.516;2022-12-11T14:47:58;74.93;;;43.20;;
75486;SDS011;65009;44.762;21.516;2022-12-11T14:50:25;53.50;;;31.13;;
75486;SDS011;65009;44.762;21.516;2022-12-11T14:52:52;60.90;;;34.87;;
75486;SDS011;65009;44.762;21.516;2022-12-11T14:57:50;141.80;;;61.90;;
75486;SDS011;65009;44.762;21.516;2022-12-11T15:02:55;177.10;;;75.80;;
75486;SDS011;65009;44.762;21.516;2022-12-11T15:05:21;159.17;;;66.17;;
75486;SDS011;65009;44.762;21.516;2022-12-11T15:10:22;115.20;;;49.20;;
75486;SDS011;65009;44.762;21.516;2022-12-11T15:12:48;116.77;;;50.43;;
75486;SDS011;65009;44.762;21.516;2022-12-11T15:15:15;136.10;;;58.53;;
75486;SDS011;65009;44.762;21.516;2022-12-11T15:17:42;105.67;;;48.27;;
75486;SDS011;65009;44.762;21.516;2022-12-11T15:20:09;114.90;;;51.73;;
75486;SDS011;65009;44.762;21.516;2022-12-11T15:22:36;113.73;;;50.30;;
75486;SDS011;65009;44.762;21.516;2022-12-11T15:25:02;77.53;;;37.10;;
75486;SDS011;65009;44.762;21.516;2022-12-11T15:27:33;150.97;;;62.60;;
75486;SDS011;65009;44.762;21.516;2022-12-11T15:30:53;136.60;;;59.90;;
75486;SDS011;65009;44.762;21.516;2022-12-11T15:35:35;125.40;;;54.37;;
75486;SDS011;65009;44.762;21.516;2022-12-11T15:38:02;123.00;;;53.20;;
75486;SDS011;65009;44.762;21.516;2022-12-11T15:40:28;77.13;;;37.50;;
75486;SDS011;65009;44.762;21.516;2022-12-11T15:42:54;107.13;;;47.23;;
75486;SDS011;65009;44.762;21.516;2022-12-11T15:45:22;142.70;;;63.63;;
75486;SDS011;65009;44.762;21.516;2022-12-11T15:47:49;89.37;;;44.30;;
75486;SDS011;65009;44.762;21.516;2022-12-11T15:50:26;104.23;;;51.20;;
75486;SDS011;65009;44.762;21.516;2022-12-11T15:52:53;68.97;;;36.13;;